This is the latest recevied weather packets stored in our database for station/object GW1496. If no packets are shown the sender has not sent any weather packets the latest 10 day(s).
| Time | Temp. | Humidity | Pressure | Rain* | Wind** | Luminosity | Snow |
|---|---|---|---|---|---|---|---|
| 1777305250 | 20° C | 46% | 1010.8 hPa | 0 mm | - | - | - |
| 1777303133 | 18.33° C | 49% | 1011.8 hPa | 0 mm | - | - | - |
| 1777302731 | 17.78° C | 50% | 1011.8 hPa | 0 mm | - | - | - |
| 1777301295 | 17.22° C | 51% | 1011.8 hPa | 0 mm | - | - | - |
| 1777300948 | 17.78° C | 51% | 1011.8 hPa | 0 mm | - | - | - |
| 1777300590 | 17.78° C | 52% | 1011.8 hPa | 0 mm | - | - | - |
| 1777297734 | 16.11° C | 58% | 1011.8 hPa | 0 mm | - | - | - |
| 1777297359 | 15.56° C | 57% | 1011.8 hPa | 0 mm | - | - | - |
| 1777296286 | 15.56° C | 59% | 1011.8 hPa | 0 mm | - | - | - |
| 1777295563 | 15.56° C | 58% | 1011.8 hPa | 0 mm | - | - | - |
| 1777291238 | 8.33° C | 92% | 1012.8 hPa | 0 mm | - | - | - |
| 1777289802 | 8.33° C | 93% | 1012.8 hPa | 0 mm | - | - | - |
| 1777285834 | 7.78° C | 93% | 1011.8 hPa | 0 mm | - | - | - |
| 1777283679 | 8.33° C | 93% | 1010.8 hPa | 0 mm | - | - | - |
| 1777278630 | 9.44° C | 92% | 1009.8 hPa | 0 mm | - | - | - |
| 1777276462 | 10° C | 92% | 1009.8 hPa | 0 mm | - | - | - |
| 1777274670 | 10° C | 91% | 1009.8 hPa | 0 mm | - | - | - |
| 1777274310 | 10° C | 91% | 1009.8 hPa | 0 mm | - | - | - |
| 1777273610 | 10° C | 91% | 1009.8 hPa | 0 mm | - | - | - |
| 1777271065 | 11.11° C | 89% | 1009.8 hPa | 0 mm | - | - | - |
| 1777270357 | 11.11° C | 89% | 1009.8 hPa | 0 mm | - | - | - |
| 1777269979 | 11.11° C | 88% | 1009.8 hPa | 0 mm | - | - | - |
| 1777269623 | 11.67° C | 88% | 1009.8 hPa | 0 mm | - | - | - |
| 1777267126 | 12.22° C | 88% | 1009.8 hPa | 0 mm | - | - | - |
| 1777266733 | 12.22° C | 88% | 1009.8 hPa | 0 mm | - | - | - |
* Rain since midnight (hover to see other rain measurements)
** Current wind speed in m/s (hover to see current wind gust speed)